createdAt,value
2023-05-14T00:02:17.609Z,99.27
2023-05-14T00:07:19.173Z,99.27
2023-05-14T00:12:20.537Z,98.00
2023-05-14T00:17:22.124Z,98.13
2023-05-14T00:22:23.529Z,98.75
2023-05-14T00:27:24.879Z,98.16
2023-05-14T00:32:26.413Z,97.23
2023-05-14T00:37:27.783Z,98.31
2023-05-14T00:42:29.209Z,100.00
2023-05-14T00:47:30.886Z,98.95
2023-05-14T00:52:32.509Z,99.97
2023-05-14T00:57:34.712Z,100.00
2023-05-14T01:02:36.373Z,100.00
2023-05-14T01:07:37.788Z,99.35
2023-05-14T01:12:52.257Z,99.53
2023-05-14T01:17:55.344Z,99.43
2023-05-14T01:22:56.705Z,100.00
2023-05-14T01:28:17.888Z,99.07
2023-05-14T01:33:21.603Z,99.50
2023-05-14T01:38:23.699Z,100.00
2023-05-14T01:43:25.943Z,100.00
2023-05-14T01:48:29.783Z,100.00
2023-05-14T01:53:31.136Z,100.00
2023-05-14T01:58:32.515Z,100.00
2023-05-14T02:03:33.898Z,100.00
2023-05-14T02:08:36.027Z,100.00
2023-05-14T02:13:38.059Z,99.70
2023-05-14T02:18:39.569Z,100.00
2023-05-14T02:23:42.232Z,100.00
2023-05-14T02:28:44.350Z,100.00
2023-05-14T02:33:47.644Z,99.63
2023-05-14T02:38:48.979Z,99.43
2023-05-14T02:43:50.378Z,100.00
2023-05-14T02:48:51.865Z,99.66
2023-05-14T02:53:53.366Z,99.69
2023-05-14T02:58:54.802Z,98.07
2023-05-14T03:03:56.749Z,98.70
2023-05-14T03:08:58.173Z,99.32
2023-05-14T03:13:59.646Z,98.62
2023-05-14T03:19:01.065Z,98.56
2023-05-14T03:24:02.485Z,99.26
2023-05-14T03:29:03.972Z,99.65
2023-05-14T03:34:05.615Z,99.05
2023-05-14T03:39:07.044Z,98.08
2023-05-14T03:44:10.259Z,99.14
2023-05-14T03:49:11.800Z,97.90
2023-05-14T03:54:13.483Z,99.30
2023-05-14T03:59:14.901Z,97.83
2023-05-14T04:04:16.401Z,97.92
2023-05-14T04:09:17.843Z,97.88
2023-05-14T04:14:19.228Z,97.75
2023-05-14T04:19:20.736Z,98.99
2023-05-14T04:24:22.158Z,98.01
2023-05-14T04:29:23.537Z,98.30
2023-05-14T04:34:24.905Z,96.62
2023-05-14T04:39:26.291Z,96.45
2023-05-14T04:44:27.676Z,97.50
2023-05-14T04:49:29.185Z,97.22
2023-05-14T04:54:30.863Z,96.46
2023-05-14T04:59:32.430Z,96.98
2023-05-14T05:04:33.787Z,100.00
2023-05-14T05:09:35.256Z,97.59
2023-05-14T05:14:36.614Z,97.62
2023-05-14T05:19:43.777Z,98.77
2023-05-14T05:24:46.715Z,99.20
2023-05-14T05:29:48.936Z,99.26
2023-05-14T05:34:51.896Z,99.77
2023-05-14T05:39:53.920Z,100.00
2023-05-14T05:44:55.404Z,99.82
2023-05-14T05:49:56.855Z,96.97
2023-05-14T05:54:58.343Z,98.02
2023-05-14T05:59:59.768Z,97.35
2023-05-14T06:05:01.227Z,97.11
2023-05-14T06:10:03.191Z,94.77
2023-05-14T06:15:04.749Z,93.85
2023-05-14T06:20:07.820Z,91.59
2023-05-14T06:25:09.529Z,92.50
2023-05-14T06:30:11.259Z,94.35
2023-05-14T06:35:12.652Z,93.16
2023-05-14T06:40:15.697Z,95.49
2023-05-14T06:45:17.221Z,92.56
2023-05-14T06:50:18.620Z,92.48
2023-05-14T06:55:20.200Z,92.15
2023-05-14T07:00:22.050Z,90.85
2023-05-14T07:05:24.174Z,91.72
2023-05-14T07:10:25.830Z,91.53
2023-05-14T07:15:27.722Z,90.72
2023-05-14T07:20:29.139Z,87.63
2023-05-14T07:25:30.568Z,89.61
2023-05-14T07:30:31.965Z,89.45
2023-05-14T07:35:33.360Z,89.07
2023-05-14T07:40:34.810Z,86.62
2023-05-14T07:45:36.865Z,87.29
2023-05-14T07:50:38.327Z,87.80
2023-05-14T07:55:40.024Z,86.52
2023-05-14T08:00:41.505Z,85.68
2023-05-14T08:05:42.880Z,84.79
2023-05-14T08:10:44.417Z,83.83
2023-05-14T08:15:45.903Z,81.69
2023-05-14T08:20:47.360Z,83.97
2023-05-14T08:25:48.791Z,80.36
2023-05-14T08:30:50.376Z,81.20
2023-05-14T08:35:53.073Z,80.01
2023-05-14T08:40:58.581Z,81.19
2023-05-14T08:46:01.936Z,78.92
2023-05-14T08:51:03.430Z,79.50
2023-05-14T08:56:05.061Z,80.78
2023-05-14T09:01:06.641Z,79.47
2023-05-14T09:06:08.833Z,76.82
2023-05-14T09:11:10.260Z,73.18
2023-05-14T09:16:11.800Z,71.36
2023-05-14T09:21:14.048Z,69.42
2023-05-14T09:26:16.861Z,69.03
2023-05-14T09:31:18.259Z,64.35
2023-05-14T09:36:19.748Z,65.82
2023-05-14T09:41:22.909Z,61.34
2023-05-14T09:46:27.221Z,57.66
2023-05-14T09:51:31.448Z,56.17
2023-05-14T09:56:33.453Z,56.26
2023-05-14T10:01:35.132Z,54.14
2023-05-14T10:06:37.586Z,53.00
2023-05-14T10:11:40.739Z,50.98
2023-05-14T10:16:46.528Z,46.99
2023-05-14T10:21:50.383Z,46.19
2023-05-14T10:26:52.340Z,46.72
2023-05-14T10:31:54.548Z,45.00
2023-05-14T10:36:58.852Z,44.69
2023-05-14T10:42:00.342Z,46.26
2023-05-14T10:47:02.426Z,45.30
2023-05-14T10:52:03.903Z,47.01
2023-05-14T10:57:11.047Z,47.60
2023-05-14T11:02:19.468Z,44.74
2023-05-14T11:07:23.905Z,44.73
2023-05-14T11:12:26.119Z,47.26
2023-05-14T11:17:28.545Z,50.24
2023-05-14T11:22:30.044Z,49.01
2023-05-14T11:27:32.209Z,51.18
2023-05-14T11:32:33.865Z,50.24
2023-05-14T11:37:35.585Z,50.10
2023-05-14T11:42:37.214Z,51.51
2023-05-14T11:47:38.596Z,53.71
2023-05-14T11:52:40.583Z,47.39
2023-05-14T11:57:42.145Z,46.81
2023-05-14T12:02:43.643Z,50.93
2023-05-14T12:07:45.630Z,51.24
2023-05-14T12:12:47.628Z,50.66
2023-05-14T12:17:50.447Z,49.11
2023-05-14T12:22:51.932Z,50.09
2023-05-14T12:27:53.278Z,52.92
2023-05-14T12:32:54.766Z,52.18
2023-05-14T12:37:56.177Z,52.69
2023-05-14T12:42:57.685Z,53.12
2023-05-14T12:47:59.147Z,48.35
2023-05-14T12:53:00.525Z,48.55
2023-05-14T12:58:01.932Z,41.91
2023-05-14T13:03:03.316Z,42.61
2023-05-14T13:08:04.745Z,44.60
2023-05-14T13:13:06.107Z,40.34
2023-05-14T13:18:07.548Z,41.69
2023-05-14T13:23:08.923Z,38.82
2023-05-14T13:28:10.377Z,38.04
2023-05-14T13:33:11.766Z,36.85
2023-05-14T13:38:13.185Z,38.17
2023-05-14T13:43:16.776Z,37.92
2023-05-14T13:48:18.145Z,35.52
2023-05-14T13:53:20.286Z,36.86
2023-05-14T13:58:22.253Z,36.67
2023-05-14T14:03:23.735Z,35.77
2023-05-14T14:08:25.189Z,33.85
2023-05-14T14:13:27.676Z,35.10
2023-05-14T14:18:29.095Z,36.07
2023-05-14T14:23:30.539Z,36.16
2023-05-14T14:28:32.350Z,35.26
2023-05-14T14:33:33.770Z,35.04
2023-05-14T14:38:35.204Z,35.65
2023-05-14T14:43:37.667Z,35.94
2023-05-14T14:48:39.053Z,36.55
2023-05-14T14:53:40.564Z,36.84
2023-05-14T14:58:42.235Z,37.90
2023-05-14T15:03:45.492Z,37.18
2023-05-14T15:08:47.097Z,38.31
2023-05-14T15:13:48.725Z,37.58
2023-05-14T15:18:50.196Z,37.22
2023-05-14T15:23:51.585Z,38.05
2023-05-14T15:28:53.003Z,36.29
2023-05-14T15:33:55.962Z,37.43
2023-05-14T15:38:57.376Z,39.75
2023-05-14T15:43:59.068Z,37.47
2023-05-14T15:49:00.510Z,39.09
2023-05-14T15:54:01.942Z,39.36
2023-05-14T15:59:03.307Z,39.42
2023-05-14T16:04:04.766Z,38.44
2023-05-14T16:09:06.259Z,39.14
2023-05-14T16:14:07.600Z,38.57
2023-05-14T16:19:09.139Z,38.60
2023-05-14T16:24:12.485Z,38.78
2023-05-14T16:29:13.895Z,40.75
2023-05-14T16:34:15.321Z,39.89
2023-05-14T16:39:17.348Z,41.63
2023-05-14T16:44:18.693Z,39.95
2023-05-14T16:49:22.288Z,39.23
2023-05-14T16:54:23.773Z,39.48
2023-05-14T16:59:25.396Z,40.19
2023-05-14T17:04:26.838Z,40.18
2023-05-14T17:09:28.575Z,41.73
2023-05-14T17:14:29.974Z,42.11
2023-05-14T17:19:31.309Z,42.60
2023-05-14T17:24:32.718Z,43.23
2023-05-14T17:29:34.273Z,43.64
2023-05-14T17:34:35.672Z,44.20
2023-05-14T17:39:37.278Z,43.83
2023-05-14T17:44:38.633Z,44.32
2023-05-14T17:49:39.971Z,45.09
2023-05-14T17:54:41.351Z,44.25
2023-05-14T17:59:42.734Z,44.11
2023-05-14T18:04:44.151Z,45.33
2023-05-14T18:09:45.585Z,44.74
2023-05-14T18:14:47.117Z,45.47
2023-05-14T18:19:48.553Z,45.70
2023-05-14T18:24:49.919Z,44.64
2023-05-14T18:29:51.684Z,44.32
2023-05-14T18:34:53.015Z,44.93
2023-05-14T18:39:54.817Z,46.60
2023-05-14T18:44:56.248Z,46.67
2023-05-14T18:50:00.225Z,46.98
2023-05-14T18:55:01.730Z,47.19
2023-05-14T19:00:04.606Z,47.90
2023-05-14T19:05:06.254Z,48.72
2023-05-14T19:10:08.033Z,48.63
2023-05-14T19:15:10.026Z,48.17
2023-05-14T19:20:11.773Z,49.83
2023-05-14T19:25:13.288Z,50.33
2023-05-14T19:30:14.871Z,50.17
2023-05-14T19:35:16.417Z,51.19
2023-05-14T19:40:17.797Z,51.29
2023-05-14T19:45:19.199Z,52.14
2023-05-14T19:50:20.608Z,53.58
2023-05-14T19:55:22.042Z,55.65
2023-05-14T20:00:23.957Z,55.88
2023-05-14T20:05:26.154Z,56.86
2023-05-14T20:10:28.062Z,56.96
2023-05-14T20:15:29.843Z,59.03
2023-05-14T20:20:33.153Z,60.47
2023-05-14T20:25:35.006Z,61.65
2023-05-14T20:30:36.496Z,60.59
2023-05-14T20:35:37.981Z,61.62
2023-05-14T20:40:39.760Z,62.45
2023-05-14T20:45:41.578Z,63.73
2023-05-14T20:50:43.225Z,62.03
2023-05-14T20:55:47.291Z,62.75
2023-05-14T21:00:48.659Z,62.12
2023-05-14T21:05:50.042Z,61.96
2023-05-14T21:10:51.394Z,63.31
2023-05-14T21:15:52.803Z,63.06
2023-05-14T21:20:59.654Z,63.78
2023-05-14T21:26:02.195Z,65.31
2023-05-14T21:31:03.585Z,67.83
2023-05-14T21:36:05.187Z,69.67
2023-05-14T21:41:06.559Z,72.57
2023-05-14T21:46:08.492Z,75.25
2023-05-14T21:51:10.035Z,77.10
2023-05-14T21:56:11.423Z,79.67
2023-05-14T22:01:12.870Z,81.28
2023-05-14T22:06:14.329Z,84.18
2023-05-14T22:11:15.769Z,84.67
2023-05-14T22:16:17.245Z,85.34
2023-05-14T22:21:18.821Z,85.58
2023-05-14T22:26:21.480Z,87.76
2023-05-14T22:31:22.892Z,88.42
2023-05-14T22:36:24.344Z,90.47
2023-05-14T22:41:26.615Z,90.18
2023-05-14T22:46:28.094Z,91.78
2023-05-14T22:51:29.498Z,92.33
2023-05-14T22:56:30.920Z,92.94
2023-05-14T23:01:32.410Z,94.09
2023-05-14T23:06:33.818Z,94.86
2023-05-14T23:11:35.288Z,93.37
2023-05-14T23:16:36.689Z,94.97
2023-05-14T23:21:38.088Z,94.99
2023-05-14T23:26:39.534Z,95.89
2023-05-14T23:31:41.245Z,95.62
2023-05-14T23:36:42.706Z,96.12
2023-05-14T23:41:44.143Z,96.23
2023-05-14T23:46:45.685Z,96.95
2023-05-14T23:51:47.069Z,97.14
2023-05-14T23:56:48.645Z,97.44
